sensor_id;sensor_type;location;lat;lon;timestamp;P1;durP1;ratioP1;P2;durP2;ratioP2
57848;SDS011;68645;44.762;21.516;2023-11-21T00:00:19;78.72;;;49.15;;
57848;SDS011;68645;44.762;21.516;2023-11-21T00:02:45;83.35;;;51.25;;
57848;SDS011;68645;44.762;21.516;2023-11-21T00:05:12;87.60;;;52.72;;
57848;SDS011;68645;44.762;21.516;2023-11-21T00:07:42;93.13;;;55.83;;
57848;SDS011;68645;44.762;21.516;2023-11-21T00:10:08;93.35;;;55.45;;
57848;SDS011;68645;44.762;21.516;2023-11-21T00:12:36;95.85;;;57.60;;
57848;SDS011;68645;44.762;21.516;2023-11-21T00:15:02;89.07;;;54.85;;
57848;SDS011;68645;44.762;21.516;2023-11-21T00:17:30;89.78;;;57.25;;
57848;SDS011;68645;44.762;21.516;2023-11-21T00:19:57;92.55;;;60.00;;
57848;SDS011;68645;44.762;21.516;2023-11-21T00:22:23;159.20;;;89.35;;
57848;SDS011;68645;44.762;21.516;2023-11-21T00:24:49;200.52;;;109.70;;
57848;SDS011;68645;44.762;21.516;2023-11-21T00:27:15;136.70;;;74.32;;
57848;SDS011;68645;44.762;21.516;2023-11-21T00:29:41;154.48;;;75.38;;
57848;SDS011;68645;44.762;21.516;2023-11-21T00:32:07;94.68;;;52.58;;
57848;SDS011;68645;44.762;21.516;2023-11-21T00:34:34;87.03;;;52.00;;
57848;SDS011;68645;44.762;21.516;2023-11-21T00:37:00;82.20;;;49.78;;
57848;SDS011;68645;44.762;21.516;2023-11-21T00:39:27;65.07;;;41.75;;
57848;SDS011;68645;44.762;21.516;2023-11-21T00:41:54;67.10;;;43.45;;
57848;SDS011;68645;44.762;21.516;2023-11-21T00:44:20;89.25;;;52.78;;
57848;SDS011;68645;44.762;21.516;2023-11-21T00:46:46;103.50;;;59.88;;
57848;SDS011;68645;44.762;21.516;2023-11-21T00:49:12;102.45;;;59.85;;
57848;SDS011;68645;44.762;21.516;2023-11-21T00:51:38;94.40;;;59.30;;
57848;SDS011;68645;44.762;21.516;2023-11-21T00:54:05;86.75;;;53.38;;
57848;SDS011;68645;44.762;21.516;2023-11-21T00:56:31;92.07;;;56.15;;
57848;SDS011;68645;44.762;21.516;2023-11-21T00:58:59;96.43;;;58.90;;
57848;SDS011;68645;44.762;21.516;2023-11-21T01:01:25;84.18;;;52.45;;
57848;SDS011;68645;44.762;21.516;2023-11-21T01:03:51;83.20;;;53.15;;
57848;SDS011;68645;44.762;21.516;2023-11-21T01:06:17;83.38;;;52.53;;
57848;SDS011;68645;44.762;21.516;2023-11-21T01:08:44;69.68;;;42.83;;
57848;SDS011;68645;44.762;21.516;2023-11-21T01:11:11;86.15;;;51.92;;
57848;SDS011;68645;44.762;21.516;2023-11-21T01:13:41;80.80;;;52.75;;
57848;SDS011;68645;44.762;21.516;2023-11-21T01:16:07;75.22;;;46.53;;
57848;SDS011;68645;44.762;21.516;2023-11-21T01:18:37;67.05;;;44.20;;
57848;SDS011;68645;44.762;21.516;2023-11-21T01:21:03;73.97;;;47.88;;
57848;SDS011;68645;44.762;21.516;2023-11-21T01:23:29;81.97;;;51.47;;
57848;SDS011;68645;44.762;21.516;2023-11-21T01:25:56;77.55;;;47.83;;
57848;SDS011;68645;44.762;21.516;2023-11-21T01:28:22;76.10;;;47.80;;
57848;SDS011;68645;44.762;21.516;2023-11-21T01:30:48;74.05;;;46.58;;
57848;SDS011;68645;44.762;21.516;2023-11-21T01:33:14;64.45;;;39.08;;
57848;SDS011;68645;44.762;21.516;2023-11-21T01:35:41;50.90;;;32.10;;
57848;SDS011;68645;44.762;21.516;2023-11-21T01:38:07;47.90;;;31.98;;
57848;SDS011;68645;44.762;21.516;2023-11-21T01:40:34;48.38;;;32.80;;
57848;SDS011;68645;44.762;21.516;2023-11-21T01:43:00;51.13;;;33.20;;
57848;SDS011;68645;44.762;21.516;2023-11-21T01:45:30;53.22;;;36.80;;
57848;SDS011;68645;44.762;21.516;2023-11-21T01:47:58;51.28;;;35.35;;
57848;SDS011;68645;44.762;21.516;2023-11-21T01:50:25;55.72;;;36.97;;
57848;SDS011;68645;44.762;21.516;2023-11-21T01:52:52;56.80;;;37.72;;
57848;SDS011;68645;44.762;21.516;2023-11-21T01:55:19;59.50;;;36.90;;
57848;SDS011;68645;44.762;21.516;2023-11-21T01:57:48;95.38;;;64.88;;
57848;SDS011;68645;44.762;21.516;2023-11-21T02:00:14;57.78;;;36.40;;
57848;SDS011;68645;44.762;21.516;2023-11-21T02:02:43;62.47;;;38.13;;
57848;SDS011;68645;44.762;21.516;2023-11-21T02:05:10;53.83;;;35.08;;
57848;SDS011;68645;44.762;21.516;2023-11-21T02:07:38;61.75;;;41.88;;
57848;SDS011;68645;44.762;21.516;2023-11-21T02:10:05;56.88;;;34.22;;
57848;SDS011;68645;44.762;21.516;2023-11-21T02:12:32;56.67;;;38.28;;
57848;SDS011;68645;44.762;21.516;2023-11-21T02:14:58;50.63;;;35.58;;
57848;SDS011;68645;44.762;21.516;2023-11-21T02:17:24;50.28;;;33.40;;
57848;SDS011;68645;44.762;21.516;2023-11-21T02:19:52;47.03;;;32.72;;
57848;SDS011;68645;44.762;21.516;2023-11-21T02:22:18;50.85;;;36.55;;
57848;SDS011;68645;44.762;21.516;2023-11-21T02:24:45;52.13;;;34.65;;
57848;SDS011;68645;44.762;21.516;2023-11-21T02:27:12;60.97;;;37.40;;
57848;SDS011;68645;44.762;21.516;2023-11-21T02:29:40;53.42;;;35.45;;
57848;SDS011;68645;44.762;21.516;2023-11-21T02:32:06;58.75;;;35.33;;
57848;SDS011;68645;44.762;21.516;2023-11-21T02:34:32;51.20;;;33.38;;
57848;SDS011;68645;44.762;21.516;2023-11-21T02:36:58;48.00;;;32.65;;
57848;SDS011;68645;44.762;21.516;2023-11-21T02:39:24;53.88;;;36.60;;
57848;SDS011;68645;44.762;21.516;2023-11-21T02:41:50;49.25;;;33.88;;
57848;SDS011;68645;44.762;21.516;2023-11-21T02:44:17;51.25;;;34.60;;
57848;SDS011;68645;44.762;21.516;2023-11-21T02:46:43;51.78;;;33.55;;
57848;SDS011;68645;44.762;21.516;2023-11-21T02:49:09;47.95;;;33.13;;
57848;SDS011;68645;44.762;21.516;2023-11-21T02:51:35;48.95;;;33.40;;
57848;SDS011;68645;44.762;21.516;2023-11-21T02:54:03;59.97;;;38.38;;
57848;SDS011;68645;44.762;21.516;2023-11-21T02:56:31;84.07;;;47.05;;
57848;SDS011;68645;44.762;21.516;2023-11-21T02:59:01;92.20;;;50.50;;
57848;SDS011;68645;44.762;21.516;2023-11-21T03:01:27;81.20;;;44.53;;
57848;SDS011;68645;44.762;21.516;2023-11-21T03:03:53;65.30;;;39.30;;
57848;SDS011;68645;44.762;21.516;2023-11-21T03:06:21;75.45;;;41.78;;
57848;SDS011;68645;44.762;21.516;2023-11-21T03:08:47;78.35;;;42.92;;
57848;SDS011;68645;44.762;21.516;2023-11-21T03:11:13;71.97;;;41.47;;
57848;SDS011;68645;44.762;21.516;2023-11-21T03:13:40;58.47;;;36.50;;
57848;SDS011;68645;44.762;21.516;2023-11-21T03:16:08;52.17;;;34.30;;
57848;SDS011;68645;44.762;21.516;2023-11-21T03:18:34;47.50;;;32.35;;
57848;SDS011;68645;44.762;21.516;2023-11-21T03:21:01;40.75;;;26.25;;
57848;SDS011;68645;44.762;21.516;2023-11-21T03:23:27;55.13;;;35.25;;
57848;SDS011;68645;44.762;21.516;2023-11-21T03:25:54;75.50;;;44.53;;
57848;SDS011;68645;44.762;21.516;2023-11-21T03:28:20;67.72;;;39.40;;
57848;SDS011;68645;44.762;21.516;2023-11-21T03:30:46;65.45;;;37.85;;
57848;SDS011;68645;44.762;21.516;2023-11-21T03:33:12;55.83;;;35.80;;
57848;SDS011;68645;44.762;21.516;2023-11-21T03:35:39;57.40;;;36.53;;
57848;SDS011;68645;44.762;21.516;2023-11-21T03:38:07;54.42;;;33.80;;
57848;SDS011;68645;44.762;21.516;2023-11-21T03:40:33;51.47;;;33.97;;
57848;SDS011;68645;44.762;21.516;2023-11-21T03:42:59;51.25;;;32.60;;
57848;SDS011;68645;44.762;21.516;2023-11-21T03:45:25;56.42;;;33.72;;
57848;SDS011;68645;44.762;21.516;2023-11-21T03:47:51;50.53;;;33.95;;
57848;SDS011;68645;44.762;21.516;2023-11-21T03:50:18;52.22;;;32.13;;
57848;SDS011;68645;44.762;21.516;2023-11-21T03:52:44;46.50;;;31.90;;
57848;SDS011;68645;44.762;21.516;2023-11-21T03:55:10;48.45;;;32.50;;
57848;SDS011;68645;44.762;21.516;2023-11-21T03:57:36;49.53;;;33.60;;
57848;SDS011;68645;44.762;21.516;2023-11-21T04:00:03;53.17;;;33.58;;
57848;SDS011;68645;44.762;21.516;2023-11-21T04:02:33;80.28;;;44.35;;
57848;SDS011;68645;44.762;21.516;2023-11-21T04:05:00;49.65;;;30.85;;
57848;SDS011;68645;44.762;21.516;2023-11-21T04:07:26;42.45;;;25.27;;
57848;SDS011;68645;44.762;21.516;2023-11-21T04:09:52;43.45;;;26.52;;
57848;SDS011;68645;44.762;21.516;2023-11-21T04:12:19;38.17;;;23.63;;
57848;SDS011;68645;44.762;21.516;2023-11-21T04:14:45;44.70;;;29.23;;
57848;SDS011;68645;44.762;21.516;2023-11-21T04:17:11;108.30;;;68.25;;
57848;SDS011;68645;44.762;21.516;2023-11-21T04:19:37;70.95;;;44.75;;
57848;SDS011;68645;44.762;21.516;2023-11-21T04:22:03;76.18;;;49.58;;
57848;SDS011;68645;44.762;21.516;2023-11-21T04:24:30;77.40;;;51.30;;
57848;SDS011;68645;44.762;21.516;2023-11-21T04:26:56;94.05;;;60.75;;
57848;SDS011;68645;44.762;21.516;2023-11-21T04:29:22;53.45;;;32.38;;
57848;SDS011;68645;44.762;21.516;2023-11-21T04:31:48;52.30;;;36.30;;
57848;SDS011;68645;44.762;21.516;2023-11-21T04:34:15;39.95;;;26.65;;
57848;SDS011;68645;44.762;21.516;2023-11-21T04:36:41;34.85;;;22.67;;
57848;SDS011;68645;44.762;21.516;2023-11-21T04:39:07;39.10;;;25.33;;
57848;SDS011;68645;44.762;21.516;2023-11-21T04:41:34;42.42;;;26.52;;
57848;SDS011;68645;44.762;21.516;2023-11-21T04:44:01;41.38;;;25.55;;
57848;SDS011;68645;44.762;21.516;2023-11-21T04:46:27;37.00;;;25.83;;
57848;SDS011;68645;44.762;21.516;2023-11-21T04:48:53;49.40;;;30.45;;
57848;SDS011;68645;44.762;21.516;2023-11-21T04:51:20;57.92;;;34.35;;
57848;SDS011;68645;44.762;21.516;2023-11-21T04:53:46;54.63;;;31.50;;
57848;SDS011;68645;44.762;21.516;2023-11-21T04:56:12;59.20;;;34.50;;
57848;SDS011;68645;44.762;21.516;2023-11-21T04:58:38;59.45;;;31.10;;
57848;SDS011;68645;44.762;21.516;2023-11-21T05:01:05;59.25;;;31.90;;
57848;SDS011;68645;44.762;21.516;2023-11-21T05:03:32;52.20;;;32.83;;
57848;SDS011;68645;44.762;21.516;2023-11-21T05:05:59;55.25;;;34.05;;
57848;SDS011;68645;44.762;21.516;2023-11-21T05:08:25;62.03;;;32.80;;
57848;SDS011;68645;44.762;21.516;2023-11-21T05:10:52;68.03;;;36.10;;
57848;SDS011;68645;44.762;21.516;2023-11-21T05:13:18;46.08;;;28.48;;
57848;SDS011;68645;44.762;21.516;2023-11-21T05:15:45;49.25;;;31.80;;
57848;SDS011;68645;44.762;21.516;2023-11-21T05:18:11;50.78;;;32.58;;
57848;SDS011;68645;44.762;21.516;2023-11-21T05:20:40;48.47;;;30.60;;
57848;SDS011;68645;44.762;21.516;2023-11-21T05:23:07;53.05;;;32.20;;
57848;SDS011;68645;44.762;21.516;2023-11-21T05:25:33;52.63;;;30.88;;
57848;SDS011;68645;44.762;21.516;2023-11-21T05:28:00;53.03;;;30.67;;
57848;SDS011;68645;44.762;21.516;2023-11-21T05:30:27;46.10;;;27.73;;
57848;SDS011;68645;44.762;21.516;2023-11-21T05:32:54;50.08;;;29.52;;
57848;SDS011;68645;44.762;21.516;2023-11-21T05:35:20;43.58;;;27.25;;
57848;SDS011;68645;44.762;21.516;2023-11-21T05:37:46;46.17;;;26.70;;
57848;SDS011;68645;44.762;21.516;2023-11-21T05:40:13;42.30;;;25.10;;
57848;SDS011;68645;44.762;21.516;2023-11-21T05:42:39;44.58;;;25.90;;
57848;SDS011;68645;44.762;21.516;2023-11-21T05:45:06;39.38;;;25.08;;
57848;SDS011;68645;44.762;21.516;2023-11-21T05:47:42;50.72;;;29.08;;
57848;SDS011;68645;44.762;21.516;2023-11-21T05:50:11;53.33;;;32.20;;
57848;SDS011;68645;44.762;21.516;2023-11-21T05:52:39;59.83;;;35.50;;
57848;SDS011;68645;44.762;21.516;2023-11-21T05:55:06;52.97;;;35.80;;
57848;SDS011;68645;44.762;21.516;2023-11-21T05:57:33;61.17;;;36.35;;
57848;SDS011;68645;44.762;21.516;2023-11-21T06:00:04;56.75;;;33.42;;
57848;SDS011;68645;44.762;21.516;2023-11-21T06:02:41;58.30;;;34.95;;
57848;SDS011;68645;44.762;21.516;2023-11-21T06:05:07;50.33;;;30.65;;
57848;SDS011;68645;44.762;21.516;2023-11-21T06:07:34;63.85;;;36.75;;
57848;SDS011;68645;44.762;21.516;2023-11-21T06:10:03;63.33;;;37.20;;
57848;SDS011;68645;44.762;21.516;2023-11-21T06:12:35;61.58;;;37.88;;
57848;SDS011;68645;44.762;21.516;2023-11-21T06:15:02;53.90;;;33.60;;
57848;SDS011;68645;44.762;21.516;2023-11-21T06:17:33;54.80;;;32.88;;
57848;SDS011;68645;44.762;21.516;2023-11-21T06:20:03;51.70;;;34.90;;
57848;SDS011;68645;44.762;21.516;2023-11-21T06:25:01;65.10;;;43.72;;
57848;SDS011;68645;44.762;21.516;2023-11-21T06:27:28;55.40;;;35.70;;
57848;SDS011;68645;44.762;21.516;2023-11-21T06:29:54;51.60;;;34.33;;
57848;SDS011;68645;44.762;21.516;2023-11-21T06:32:21;99.43;;;59.03;;
57848;SDS011;68645;44.762;21.516;2023-11-21T06:34:48;479.98;;;226.35;;
57848;SDS011;68645;44.762;21.516;2023-11-21T06:37:15;345.13;;;162.13;;
57848;SDS011;68645;44.762;21.516;2023-11-21T06:39:42;254.88;;;125.40;;
57848;SDS011;68645;44.762;21.516;2023-11-21T06:42:08;233.55;;;116.10;;
57848;SDS011;68645;44.762;21.516;2023-11-21T06:44:34;264.60;;;126.13;;
57848;SDS011;68645;44.762;21.516;2023-11-21T06:47:01;281.50;;;132.65;;
57848;SDS011;68645;44.762;21.516;2023-11-21T06:49:28;338.70;;;151.35;;
57848;SDS011;68645;44.762;21.516;2023-11-21T06:51:54;307.67;;;138.05;;
57848;SDS011;68645;44.762;21.516;2023-11-21T06:54:20;323.45;;;147.15;;
57848;SDS011;68645;44.762;21.516;2023-11-21T06:56:47;265.70;;;128.98;;
57848;SDS011;68645;44.762;21.516;2023-11-21T06:59:13;175.55;;;95.57;;
57848;SDS011;68645;44.762;21.516;2023-11-21T07:01:40;155.07;;;80.95;;
57848;SDS011;68645;44.762;21.516;2023-11-21T07:04:06;188.20;;;93.55;;
57848;SDS011;68645;44.762;21.516;2023-11-21T07:06:34;194.63;;;100.72;;
57848;SDS011;68645;44.762;21.516;2023-11-21T07:09:00;167.40;;;89.30;;
57848;SDS011;68645;44.762;21.516;2023-11-21T07:11:28;157.00;;;83.22;;
57848;SDS011;68645;44.762;21.516;2023-11-21T07:13:54;132.30;;;71.88;;
57848;SDS011;68645;44.762;21.516;2023-11-21T07:16:21;125.90;;;71.95;;
57848;SDS011;68645;44.762;21.516;2023-11-21T07:18:48;319.20;;;152.85;;
57848;SDS011;68645;44.762;21.516;2023-11-21T07:21:15;310.23;;;144.25;;
57848;SDS011;68645;44.762;21.516;2023-11-21T07:23:41;386.55;;;185.07;;
57848;SDS011;68645;44.762;21.516;2023-11-21T07:26:07;349.73;;;154.10;;
57848;SDS011;68645;44.762;21.516;2023-11-21T07:28:35;237.35;;;121.43;;
57848;SDS011;68645;44.762;21.516;2023-11-21T07:31:02;123.72;;;77.95;;
57848;SDS011;68645;44.762;21.516;2023-11-21T07:33:28;107.57;;;68.05;;
57848;SDS011;68645;44.762;21.516;2023-11-21T07:35:54;127.47;;;79.60;;
57848;SDS011;68645;44.762;21.516;2023-11-21T07:38:20;115.55;;;68.38;;
57848;SDS011;68645;44.762;21.516;2023-11-21T07:40:47;155.18;;;114.50;;
57848;SDS011;68645;44.762;21.516;2023-11-21T07:43:13;222.55;;;176.27;;
57848;SDS011;68645;44.762;21.516;2023-11-21T07:45:39;118.35;;;83.75;;
57848;SDS011;68645;44.762;21.516;2023-11-21T07:48:05;73.38;;;46.13;;
57848;SDS011;68645;44.762;21.516;2023-11-21T07:50:31;43.92;;;28.83;;
57848;SDS011;68645;44.762;21.516;2023-11-21T07:52:58;42.47;;;26.98;;
57848;SDS011;68645;44.762;21.516;2023-11-21T07:55:24;37.20;;;24.95;;
57848;SDS011;68645;44.762;21.516;2023-11-21T07:57:50;40.10;;;26.95;;
57848;SDS011;68645;44.762;21.516;2023-11-21T08:00:16;31.85;;;23.02;;
57848;SDS011;68645;44.762;21.516;2023-11-21T08:02:43;73.35;;;49.00;;
57848;SDS011;68645;44.762;21.516;2023-11-21T08:05:11;48.08;;;33.70;;
57848;SDS011;68645;44.762;21.516;2023-11-21T08:07:37;47.38;;;31.40;;
57848;SDS011;68645;44.762;21.516;2023-11-21T08:10:04;45.75;;;30.50;;
57848;SDS011;68645;44.762;21.516;2023-11-21T08:12:30;40.92;;;28.10;;
57848;SDS011;68645;44.762;21.516;2023-11-21T08:14:56;48.75;;;32.00;;
57848;SDS011;68645;44.762;21.516;2023-11-21T08:17:23;34.10;;;21.63;;
57848;SDS011;68645;44.762;21.516;2023-11-21T08:19:49;31.75;;;21.88;;
57848;SDS011;68645;44.762;21.516;2023-11-21T08:22:16;40.67;;;27.45;;
57848;SDS011;68645;44.762;21.516;2023-11-21T08:24:45;44.92;;;29.02;;
57848;SDS011;68645;44.762;21.516;2023-11-21T08:27:12;41.75;;;28.75;;
57848;SDS011;68645;44.762;21.516;2023-11-21T08:29:40;49.42;;;31.45;;
57848;SDS011;68645;44.762;21.516;2023-11-21T08:32:07;61.50;;;36.97;;
57848;SDS011;68645;44.762;21.516;2023-11-21T08:34:33;62.35;;;37.50;;
57848;SDS011;68645;44.762;21.516;2023-11-21T08:36:59;77.10;;;42.97;;
57848;SDS011;68645;44.762;21.516;2023-11-21T08:39:25;69.68;;;39.85;;
57848;SDS011;68645;44.762;21.516;2023-11-21T08:41:52;62.67;;;34.67;;
57848;SDS011;68645;44.762;21.516;2023-11-21T08:44:18;58.28;;;35.13;;
57848;SDS011;68645;44.762;21.516;2023-11-21T08:46:44;61.10;;;35.10;;
57848;SDS011;68645;44.762;21.516;2023-11-21T08:49:12;47.17;;;29.02;;
57848;SDS011;68645;44.762;21.516;2023-11-21T08:51:39;57.22;;;35.55;;
57848;SDS011;68645;44.762;21.516;2023-11-21T08:54:05;56.45;;;34.65;;
57848;SDS011;68645;44.762;21.516;2023-11-21T08:56:33;88.00;;;62.72;;
57848;SDS011;68645;44.762;21.516;2023-11-21T08:59:00;63.80;;;45.90;;
57848;SDS011;68645;44.762;21.516;2023-11-21T09:01:31;46.97;;;29.95;;
57848;SDS011;68645;44.762;21.516;2023-11-21T09:03:57;35.05;;;22.10;;
57848;SDS011;68645;44.762;21.516;2023-11-21T09:06:24;29.13;;;20.25;;
57848;SDS011;68645;44.762;21.516;2023-11-21T09:08:50;32.53;;;20.15;;
57848;SDS011;68645;44.762;21.516;2023-11-21T09:11:16;29.75;;;19.77;;
57848;SDS011;68645;44.762;21.516;2023-11-21T09:13:43;21.27;;;15.02;;
57848;SDS011;68645;44.762;21.516;2023-11-21T09:16:09;22.98;;;14.50;;
57848;SDS011;68645;44.762;21.516;2023-11-21T09:18:36;25.92;;;17.42;;
57848;SDS011;68645;44.762;21.516;2023-11-21T09:21:02;22.85;;;16.00;;
57848;SDS011;68645;44.762;21.516;2023-11-21T09:23:29;27.25;;;17.48;;
57848;SDS011;68645;44.762;21.516;2023-11-21T09:25:55;29.90;;;18.13;;
57848;SDS011;68645;44.762;21.516;2023-11-21T09:28:22;35.53;;;18.15;;
57848;SDS011;68645;44.762;21.516;2023-11-21T09:30:48;35.25;;;21.40;;
57848;SDS011;68645;44.762;21.516;2023-11-21T09:33:15;36.67;;;23.45;;
57848;SDS011;68645;44.762;21.516;2023-11-21T09:35:42;30.70;;;20.10;;
57848;SDS011;68645;44.762;21.516;2023-11-21T09:38:09;33.90;;;21.67;;
57848;SDS011;68645;44.762;21.516;2023-11-21T09:40:36;31.20;;;19.95;;
57848;SDS011;68645;44.762;21.516;2023-11-21T09:43:05;32.30;;;20.35;;
57848;SDS011;68645;44.762;21.516;2023-11-21T09:45:41;41.05;;;23.85;;
57848;SDS011;68645;44.762;21.516;2023-11-21T09:48:10;38.33;;;23.65;;
57848;SDS011;68645;44.762;21.516;2023-11-21T09:50:37;33.53;;;21.45;;
57848;SDS011;68645;44.762;21.516;2023-11-21T09:53:07;35.17;;;22.23;;
57848;SDS011;68645;44.762;21.516;2023-11-21T09:55:41;28.20;;;19.63;;
57848;SDS011;68645;44.762;21.516;2023-11-21T09:58:09;62.30;;;46.40;;
57848;SDS011;68645;44.762;21.516;2023-11-21T10:00:40;49.70;;;32.08;;
57848;SDS011;68645;44.762;21.516;2023-11-21T10:03:06;40.75;;;26.98;;
57848;SDS011;68645;44.762;21.516;2023-11-21T10:05:33;38.00;;;23.40;;
57848;SDS011;68645;44.762;21.516;2023-11-21T10:07:59;47.38;;;28.15;;
57848;SDS011;68645;44.762;21.516;2023-11-21T10:10:26;43.55;;;26.30;;
57848;SDS011;68645;44.762;21.516;2023-11-21T10:12:57;36.20;;;25.15;;
57848;SDS011;68645;44.762;21.516;2023-11-21T10:15:28;43.67;;;27.20;;
57848;SDS011;68645;44.762;21.516;2023-11-21T10:17:55;36.42;;;22.83;;
57848;SDS011;68645;44.762;21.516;2023-11-21T10:20:22;33.35;;;20.13;;
57848;SDS011;68645;44.762;21.516;2023-11-21T10:22:49;41.20;;;23.92;;
57848;SDS011;68645;44.762;21.516;2023-11-21T10:25:15;26.45;;;15.27;;
57848;SDS011;68645;44.762;21.516;2023-11-21T10:27:47;25.67;;;14.55;;
57848;SDS011;68645;44.762;21.516;2023-11-21T10:30:13;31.33;;;18.08;;
57848;SDS011;68645;44.762;21.516;2023-11-21T10:32:41;42.13;;;27.23;;
57848;SDS011;68645;44.762;21.516;2023-11-21T10:35:08;45.80;;;26.55;;
57848;SDS011;68645;44.762;21.516;2023-11-21T10:37:38;51.08;;;30.83;;
57848;SDS011;68645;44.762;21.516;2023-11-21T10:40:09;47.22;;;28.35;;
57848;SDS011;68645;44.762;21.516;2023-11-21T10:42:38;43.42;;;27.05;;
57848;SDS011;68645;44.762;21.516;2023-11-21T10:45:05;47.40;;;30.70;;
57848;SDS011;68645;44.762;21.516;2023-11-21T10:47:39;53.63;;;30.65;;
57848;SDS011;68645;44.762;21.516;2023-11-21T10:50:05;44.65;;;29.75;;
57848;SDS011;68645;44.762;21.516;2023-11-21T10:52:36;39.30;;;26.57;;
57848;SDS011;68645;44.762;21.516;2023-11-21T10:55:15;48.33;;;31.73;;
57848;SDS011;68645;44.762;21.516;2023-11-21T10:57:42;156.77;;;101.82;;
57848;SDS011;68645;44.762;21.516;2023-11-21T11:00:08;84.10;;;55.55;;
57848;SDS011;68645;44.762;21.516;2023-11-21T11:02:38;80.25;;;50.22;;
57848;SDS011;68645;44.762;21.516;2023-11-21T11:05:04;62.63;;;36.88;;
57848;SDS011;68645;44.762;21.516;2023-11-21T11:07:31;62.60;;;33.97;;
57848;SDS011;68645;44.762;21.516;2023-11-21T11:09:59;53.38;;;30.45;;
57848;SDS011;68645;44.762;21.516;2023-11-21T11:12:25;60.10;;;35.53;;
57848;SDS011;68645;44.762;21.516;2023-11-21T11:14:53;36.38;;;22.23;;
57848;SDS011;68645;44.762;21.516;2023-11-21T11:17:20;42.50;;;25.90;;
57848;SDS011;68645;44.762;21.516;2023-11-21T11:19:47;32.47;;;20.15;;
57848;SDS011;68645;44.762;21.516;2023-11-21T11:37:34;53.92;;;35.30;;
57848;SDS011;68645;44.762;21.516;2023-11-21T11:40:00;72.32;;;41.10;;
57848;SDS011;68645;44.762;21.516;2023-11-21T11:42:26;63.22;;;35.78;;
57848;SDS011;68645;44.762;21.516;2023-11-21T11:44:55;57.70;;;35.92;;
57848;SDS011;68645;44.762;21.516;2023-11-21T11:52:41;55.47;;;30.98;;
57848;SDS011;68645;44.762;21.516;2023-11-21T11:55:11;36.53;;;22.38;;
57848;SDS011;68645;44.762;21.516;2023-11-21T11:57:45;37.17;;;23.38;;
57848;SDS011;68645;44.762;21.516;2023-11-21T12:03:00;48.97;;;29.55;;
57848;SDS011;68645;44.762;21.516;2023-11-21T12:05:33;52.67;;;31.27;;
57848;SDS011;68645;44.762;21.516;2023-11-21T12:08:07;58.25;;;34.30;;
57848;SDS011;68645;44.762;21.516;2023-11-21T12:10:34;86.20;;;46.92;;
57848;SDS011;68645;44.762;21.516;2023-11-21T12:13:05;40.10;;;27.50;;
57848;SDS011;68645;44.762;21.516;2023-11-21T12:15:35;36.15;;;24.70;;
57848;SDS011;68645;44.762;21.516;2023-11-21T12:18:02;29.58;;;19.60;;
57848;SDS011;68645;44.762;21.516;2023-11-21T12:20:31;40.88;;;29.80;;
57848;SDS011;68645;44.762;21.516;2023-11-21T12:23:03;47.47;;;29.95;;
57848;SDS011;68645;44.762;21.516;2023-11-21T12:25:31;38.63;;;25.80;;
57848;SDS011;68645;44.762;21.516;2023-11-21T12:27:58;48.17;;;29.13;;
57848;SDS011;68645;44.762;21.516;2023-11-21T12:30:26;46.38;;;30.05;;
57848;SDS011;68645;44.762;21.516;2023-11-21T12:33:01;25.60;;;16.05;;
57848;SDS011;68645;44.762;21.516;2023-11-21T12:35:28;36.60;;;21.80;;
57848;SDS011;68645;44.762;21.516;2023-11-21T12:37:55;32.28;;;16.90;;
57848;SDS011;68645;44.762;21.516;2023-11-21T12:40:24;29.75;;;17.42;;
57848;SDS011;68645;44.762;21.516;2023-11-21T12:42:54;33.00;;;18.80;;
57848;SDS011;68645;44.762;21.516;2023-11-21T12:45:24;31.35;;;17.83;;
57848;SDS011;68645;44.762;21.516;2023-11-21T12:47:51;39.28;;;22.75;;
57848;SDS011;68645;44.762;21.516;2023-11-21T12:50:21;44.08;;;27.65;;
57848;SDS011;68645;44.762;21.516;2023-11-21T12:53:03;38.00;;;24.33;;
57848;SDS011;68645;44.762;21.516;2023-11-21T12:55:33;52.70;;;30.40;;
57848;SDS011;68645;44.762;21.516;2023-11-21T12:58:02;70.35;;;39.90;;
57848;SDS011;68645;44.762;21.516;2023-11-21T13:03:04;56.42;;;32.65;;
57848;SDS011;68645;44.762;21.516;2023-11-21T13:05:38;81.22;;;42.80;;
57848;SDS011;68645;44.762;21.516;2023-11-21T13:08:05;69.97;;;40.35;;
57848;SDS011;68645;44.762;21.516;2023-11-21T13:10:34;58.95;;;32.88;;
57848;SDS011;68645;44.762;21.516;2023-11-21T13:13:02;64.38;;;38.05;;
57848;SDS011;68645;44.762;21.516;2023-11-21T13:15:30;79.30;;;44.90;;
57848;SDS011;68645;44.762;21.516;2023-11-21T13:17:57;74.20;;;43.10;;
57848;SDS011;68645;44.762;21.516;2023-11-21T13:20:27;127.57;;;65.47;;
57848;SDS011;68645;44.762;21.516;2023-11-21T13:22:55;124.17;;;62.63;;
57848;SDS011;68645;44.762;21.516;2023-11-21T13:25:26;120.90;;;63.15;;
57848;SDS011;68645;44.762;21.516;2023-11-21T13:27:53;98.75;;;55.70;;
57848;SDS011;68645;44.762;21.516;2023-11-21T13:30:19;118.40;;;63.97;;
57848;SDS011;68645;44.762;21.516;2023-11-21T13:32:52;198.38;;;104.63;;
57848;SDS011;68645;44.762;21.516;2023-11-21T13:35:22;605.13;;;325.17;;
57848;SDS011;68645;44.762;21.516;2023-11-21T13:37:57;313.80;;;156.52;;
57848;SDS011;68645;44.762;21.516;2023-11-21T13:40:28;199.75;;;105.22;;
57848;SDS011;68645;44.762;21.516;2023-11-21T13:42:55;177.25;;;98.95;;
57848;SDS011;68645;44.762;21.516;2023-11-21T13:45:24;143.35;;;80.43;;
57848;SDS011;68645;44.762;21.516;2023-11-21T13:47:52;126.13;;;71.45;;
57848;SDS011;68645;44.762;21.516;2023-11-21T13:50:30;85.35;;;50.15;;
57848;SDS011;68645;44.762;21.516;2023-11-21T13:53:00;167.90;;;93.20;;
57848;SDS011;68645;44.762;21.516;2023-11-21T13:55:44;207.48;;;114.30;;
57848;SDS011;68645;44.762;21.516;2023-11-21T14:00:45;193.07;;;109.70;;
57848;SDS011;68645;44.762;21.516;2023-11-21T14:03:12;164.15;;;99.80;;
57848;SDS011;68645;44.762;21.516;2023-11-21T14:05:45;164.45;;;97.95;;
57848;SDS011;68645;44.762;21.516;2023-11-21T14:08:17;146.90;;;90.03;;
57848;SDS011;68645;44.762;21.516;2023-11-21T14:10:45;136.10;;;81.07;;
57848;SDS011;68645;44.762;21.516;2023-11-21T14:13:16;133.30;;;82.93;;
57848;SDS011;68645;44.762;21.516;2023-11-21T14:15:43;126.88;;;83.13;;
57848;SDS011;68645;44.762;21.516;2023-11-21T14:18:11;129.32;;;82.97;;
57848;SDS011;68645;44.762;21.516;2023-11-21T14:20:39;130.68;;;85.70;;
57848;SDS011;68645;44.762;21.516;2023-11-21T14:23:07;191.10;;;119.38;;
57848;SDS011;68645;44.762;21.516;2023-11-21T14:25:33;254.95;;;152.93;;
57848;SDS011;68645;44.762;21.516;2023-11-21T14:28:02;269.88;;;171.90;;
57848;SDS011;68645;44.762;21.516;2023-11-21T14:30:29;187.73;;;118.53;;
57848;SDS011;68645;44.762;21.516;2023-11-21T14:32:58;114.72;;;77.38;;
57848;SDS011;68645;44.762;21.516;2023-11-21T14:35:24;130.25;;;84.70;;
57848;SDS011;68645;44.762;21.516;2023-11-21T14:37:52;132.23;;;88.45;;